sensor_id;sensor_type;location;lat;lon;timestamp;P1;durP1;ratioP1;P2;durP2;ratioP2
29902;SDS011;30288;50.514;9.678;2023-03-31T00:00:26;9.68;;;1.70;;
29902;SDS011;30288;50.514;9.678;2023-03-31T00:02:31;14.65;;;2.00;;
29902;SDS011;30288;50.514;9.678;2023-03-31T00:04:41;15.80;;;2.40;;
29902;SDS011;30288;50.514;9.678;2023-03-31T00:06:53;13.77;;;2.42;;
29902;SDS011;30288;50.514;9.678;2023-03-31T00:08:59;11.25;;;2.17;;
29902;SDS011;30288;50.514;9.678;2023-03-31T00:11:05;10.48;;;1.88;;
29902;SDS011;30288;50.514;9.678;2023-03-31T00:13:12;13.70;;;2.25;;
29902;SDS011;30288;50.514;9.678;2023-03-31T00:15:18;12.18;;;2.40;;
29902;SDS011;30288;50.514;9.678;2023-03-31T00:17:23;10.45;;;2.45;;
29902;SDS011;30288;50.514;9.678;2023-03-31T00:19:29;14.02;;;2.63;;
29902;SDS011;30288;50.514;9.678;2023-03-31T00:21:36;10.20;;;1.80;;
29902;SDS011;30288;50.514;9.678;2023-03-31T00:23:43;15.13;;;2.72;;
29902;SDS011;30288;50.514;9.678;2023-03-31T00:25:48;14.07;;;2.00;;
29902;SDS011;30288;50.514;9.678;2023-03-31T00:27:53;12.05;;;1.90;;
29902;SDS011;30288;50.514;9.678;2023-03-31T00:29:58;12.38;;;2.38;;
29902;SDS011;30288;50.514;9.678;2023-03-31T00:32:03;8.57;;;1.80;;
29902;SDS011;30288;50.514;9.678;2023-03-31T00:34:09;6.85;;;1.65;;
29902;SDS011;30288;50.514;9.678;2023-03-31T00:36:14;8.23;;;1.73;;
29902;SDS011;30288;50.514;9.678;2023-03-31T00:38:24;12.63;;;2.50;;
29902;SDS011;30288;50.514;9.678;2023-03-31T00:40:30;9.75;;;3.10;;
29902;SDS011;30288;50.514;9.678;2023-03-31T00:42:38;9.55;;;1.83;;
29902;SDS011;30288;50.514;9.678;2023-03-31T00:47:31;14.90;;;2.38;;
29902;SDS011;30288;50.514;9.678;2023-03-31T00:49:38;8.20;;;1.75;;
29902;SDS011;30288;50.514;9.678;2023-03-31T00:51:47;15.55;;;2.10;;
29902;SDS011;30288;50.514;9.678;2023-03-31T00:53:58;8.85;;;1.90;;
29902;SDS011;30288;50.514;9.678;2023-03-31T00:56:08;12.73;;;2.03;;
29902;SDS011;30288;50.514;9.678;2023-03-31T00:58:17;15.00;;;2.60;;
29902;SDS011;30288;50.514;9.678;2023-03-31T01:00:29;13.27;;;2.50;;
29902;SDS011;30288;50.514;9.678;2023-03-31T01:02:34;15.20;;;2.42;;
29902;SDS011;30288;50.514;9.678;2023-03-31T01:04:42;13.18;;;2.50;;
29902;SDS011;30288;50.514;9.678;2023-03-31T01:06:56;10.20;;;2.10;;
29902;SDS011;30288;50.514;9.678;2023-03-31T01:09:09;10.32;;;2.45;;
29902;SDS011;30288;50.514;9.678;2023-03-31T01:11:15;12.57;;;2.35;;
29902;SDS011;30288;50.514;9.678;2023-03-31T01:13:23;13.60;;;2.30;;
29902;SDS011;30288;50.514;9.678;2023-03-31T01:15:29;13.15;;;2.03;;
29902;SDS011;30288;50.514;9.678;2023-03-31T01:17:35;14.43;;;2.65;;
29902;SDS011;30288;50.514;9.678;2023-03-31T01:19:49;10.00;;;2.40;;
29902;SDS011;30288;50.514;9.678;2023-03-31T01:28:36;17.27;;;2.20;;
29902;SDS011;30288;50.514;9.678;2023-03-31T01:33:41;10.82;;;2.10;;
29902;SDS011;30288;50.514;9.678;2023-03-31T01:36:27;13.38;;;3.55;;
29902;SDS011;30288;50.514;9.678;2023-03-31T01:39:06;13.40;;;2.22;;
29902;SDS011;30288;50.514;9.678;2023-03-31T01:41:55;12.57;;;2.30;;
29902;SDS011;30288;50.514;9.678;2023-03-31T01:44:06;15.90;;;2.20;;
29902;SDS011;30288;50.514;9.678;2023-03-31T01:46:23;11.23;;;1.88;;
29902;SDS011;30288;50.514;9.678;2023-03-31T01:48:37;15.05;;;2.97;;
29902;SDS011;30288;50.514;9.678;2023-03-31T01:50:53;9.73;;;2.53;;
29902;SDS011;30288;50.514;9.678;2023-03-31T01:53:02;14.60;;;2.28;;
29902;SDS011;30288;50.514;9.678;2023-03-31T01:55:15;7.80;;;1.65;;
29902;SDS011;30288;50.514;9.678;2023-03-31T01:57:31;16.23;;;2.42;;
29902;SDS011;30288;50.514;9.678;2023-03-31T01:59:42;12.63;;;1.90;;
29902;SDS011;30288;50.514;9.678;2023-03-31T02:01:57;9.88;;;1.80;;
29902;SDS011;30288;50.514;9.678;2023-03-31T02:04:08;11.85;;;1.80;;
29902;SDS011;30288;50.514;9.678;2023-03-31T02:06:18;15.40;;;2.05;;
29902;SDS011;30288;50.514;9.678;2023-03-31T02:08:30;21.88;;;2.65;;
29902;SDS011;30288;50.514;9.678;2023-03-31T02:10:41;10.00;;;2.00;;
29902;SDS011;30288;50.514;9.678;2023-03-31T02:12:51;17.75;;;2.60;;
29902;SDS011;30288;50.514;9.678;2023-03-31T02:14:59;10.30;;;2.42;;
29902;SDS011;30288;50.514;9.678;2023-03-31T02:17:10;13.18;;;2.45;;
29902;SDS011;30288;50.514;9.678;2023-03-31T02:19:22;7.28;;;2.03;;
29902;SDS011;30288;50.514;9.678;2023-03-31T02:21:31;14.60;;;2.17;;
29902;SDS011;30288;50.514;9.678;2023-03-31T02:23:41;22.42;;;2.65;;
29902;SDS011;30288;50.514;9.678;2023-03-31T02:25:50;12.55;;;2.55;;
29902;SDS011;30288;50.514;9.678;2023-03-31T02:28:03;15.05;;;2.25;;
29902;SDS011;30288;50.514;9.678;2023-03-31T02:30:13;17.48;;;2.72;;
29902;SDS011;30288;50.514;9.678;2023-03-31T02:32:19;11.75;;;2.85;;
29902;SDS011;30288;50.514;9.678;2023-03-31T02:34:28;16.85;;;2.22;;
29902;SDS011;30288;50.514;9.678;2023-03-31T02:36:34;14.48;;;2.72;;
29902;SDS011;30288;50.514;9.678;2023-03-31T02:38:42;10.02;;;2.35;;
29902;SDS011;30288;50.514;9.678;2023-03-31T02:40:52;12.48;;;2.58;;
29902;SDS011;30288;50.514;9.678;2023-03-31T02:42:57;12.70;;;2.42;;
29902;SDS011;30288;50.514;9.678;2023-03-31T02:47:47;15.87;;;3.13;;
29902;SDS011;30288;50.514;9.678;2023-03-31T02:49:53;13.00;;;4.18;;
29902;SDS011;30288;50.514;9.678;2023-03-31T02:52:12;14.55;;;2.95;;
29902;SDS011;30288;50.514;9.678;2023-03-31T02:54:45;13.52;;;2.50;;
29902;SDS011;30288;50.514;9.678;2023-03-31T02:57:35;17.38;;;2.78;;
29902;SDS011;30288;50.514;9.678;2023-03-31T03:00:14;18.48;;;3.08;;
29902;SDS011;30288;50.514;9.678;2023-03-31T03:02:33;13.38;;;2.50;;
29902;SDS011;30288;50.514;9.678;2023-03-31T03:04:57;21.48;;;2.80;;
29902;SDS011;30288;50.514;9.678;2023-03-31T03:07:43;15.90;;;2.40;;
29902;SDS011;30288;50.514;9.678;2023-03-31T03:09:55;11.25;;;2.88;;
29902;SDS011;30288;50.514;9.678;2023-03-31T03:12:07;13.98;;;2.75;;
29902;SDS011;30288;50.514;9.678;2023-03-31T03:14:22;14.80;;;2.83;;
29902;SDS011;30288;50.514;9.678;2023-03-31T03:16:36;15.95;;;3.83;;
29902;SDS011;30288;50.514;9.678;2023-03-31T03:18:53;7.88;;;2.80;;
29902;SDS011;30288;50.514;9.678;2023-03-31T03:21:01;11.48;;;2.53;;
29902;SDS011;30288;50.514;9.678;2023-03-31T03:23:06;16.33;;;3.90;;
29902;SDS011;30288;50.514;9.678;2023-03-31T03:25:12;15.70;;;3.00;;
29902;SDS011;30288;50.514;9.678;2023-03-31T03:27:21;14.27;;;2.78;;
29902;SDS011;30288;50.514;9.678;2023-03-31T03:29:26;24.58;;;3.25;;
29902;SDS011;30288;50.514;9.678;2023-03-31T03:31:32;15.45;;;2.88;;
29902;SDS011;30288;50.514;9.678;2023-03-31T03:33:37;17.02;;;3.17;;
29902;SDS011;30288;50.514;9.678;2023-03-31T03:35:45;13.60;;;2.75;;
29902;SDS011;30288;50.514;9.678;2023-03-31T03:37:50;16.13;;;3.08;;
29902;SDS011;30288;50.514;9.678;2023-03-31T03:39:55;22.42;;;3.25;;
29902;SDS011;30288;50.514;9.678;2023-03-31T03:42:01;27.05;;;3.95;;
29902;SDS011;30288;50.514;9.678;2023-03-31T03:44:07;17.92;;;3.33;;
29902;SDS011;30288;50.514;9.678;2023-03-31T03:46:12;15.70;;;3.30;;
29902;SDS011;30288;50.514;9.678;2023-03-31T03:48:18;17.55;;;3.40;;
29902;SDS011;30288;50.514;9.678;2023-03-31T03:50:23;16.48;;;3.30;;
29902;SDS011;30288;50.514;9.678;2023-03-31T03:52:31;13.25;;;3.70;;
29902;SDS011;30288;50.514;9.678;2023-03-31T03:54:36;17.92;;;3.38;;
29902;SDS011;30288;50.514;9.678;2023-03-31T03:56:41;15.98;;;3.38;;
29902;SDS011;30288;50.514;9.678;2023-03-31T03:58:47;19.13;;;4.13;;
29902;SDS011;30288;50.514;9.678;2023-03-31T04:00:52;24.00;;;4.50;;
29902;SDS011;30288;50.514;9.678;2023-03-31T04:02:58;14.95;;;3.40;;
29902;SDS011;30288;50.514;9.678;2023-03-31T04:05:03;17.70;;;4.25;;
29902;SDS011;30288;50.514;9.678;2023-03-31T04:07:09;23.10;;;4.43;;
29902;SDS011;30288;50.514;9.678;2023-03-31T04:09:16;16.33;;;4.30;;
29902;SDS011;30288;50.514;9.678;2023-03-31T04:11:22;16.83;;;3.50;;
29902;SDS011;30288;50.514;9.678;2023-03-31T04:13:28;16.60;;;3.75;;
29902;SDS011;30288;50.514;9.678;2023-03-31T04:15:33;26.13;;;4.22;;
29902;SDS011;30288;50.514;9.678;2023-03-31T04:17:39;16.02;;;4.30;;
29902;SDS011;30288;50.514;9.678;2023-03-31T04:19:49;15.48;;;3.85;;
29902;SDS011;30288;50.514;9.678;2023-03-31T04:21:54;19.08;;;4.03;;
29902;SDS011;30288;50.514;9.678;2023-03-31T04:24:03;32.55;;;6.53;;
29902;SDS011;30288;50.514;9.678;2023-03-31T04:26:16;32.75;;;4.93;;
29902;SDS011;30288;50.514;9.678;2023-03-31T04:28:31;9.75;;;3.70;;
29902;SDS011;30288;50.514;9.678;2023-03-31T04:30:36;18.70;;;4.03;;
29902;SDS011;30288;50.514;9.678;2023-03-31T04:32:42;22.27;;;3.95;;
29902;SDS011;30288;50.514;9.678;2023-03-31T04:34:47;17.73;;;4.22;;
29902;SDS011;30288;50.514;9.678;2023-03-31T04:37:03;21.10;;;3.90;;
29902;SDS011;30288;50.514;9.678;2023-03-31T04:39:11;19.27;;;4.20;;
29902;SDS011;30288;50.514;9.678;2023-03-31T04:41:20;15.05;;;3.85;;
29902;SDS011;30288;50.514;9.678;2023-03-31T04:43:28;16.38;;;3.55;;
29902;SDS011;30288;50.514;9.678;2023-03-31T04:45:33;22.92;;;3.67;;
29902;SDS011;30288;50.514;9.678;2023-03-31T04:47:38;19.10;;;3.60;;
29902;SDS011;30288;50.514;9.678;2023-03-31T04:49:44;15.02;;;3.47;;
29902;SDS011;30288;50.514;9.678;2023-03-31T04:51:49;16.65;;;3.35;;
29902;SDS011;30288;50.514;9.678;2023-03-31T04:53:54;19.85;;;3.00;;
29902;SDS011;30288;50.514;9.678;2023-03-31T04:55:59;17.98;;;6.00;;
29902;SDS011;30288;50.514;9.678;2023-03-31T04:58:07;14.98;;;4.40;;
29902;SDS011;30288;50.514;9.678;2023-03-31T05:00:13;19.17;;;4.15;;
29902;SDS011;30288;50.514;9.678;2023-03-31T05:02:19;15.32;;;5.07;;
29902;SDS011;30288;50.514;9.678;2023-03-31T05:04:26;18.45;;;3.45;;
29902;SDS011;30288;50.514;9.678;2023-03-31T05:06:31;10.18;;;2.38;;
29902;SDS011;30288;50.514;9.678;2023-03-31T05:08:36;15.45;;;2.50;;
29902;SDS011;30288;50.514;9.678;2023-03-31T05:10:42;11.27;;;2.28;;
29902;SDS011;30288;50.514;9.678;2023-03-31T05:12:47;15.40;;;2.63;;
29902;SDS011;30288;50.514;9.678;2023-03-31T05:14:55;15.52;;;2.25;;
29902;SDS011;30288;50.514;9.678;2023-03-31T05:17:01;20.27;;;2.65;;
29902;SDS011;30288;50.514;9.678;2023-03-31T05:19:06;17.55;;;3.53;;
29902;SDS011;30288;50.514;9.678;2023-03-31T05:21:13;18.52;;;2.50;;
29902;SDS011;30288;50.514;9.678;2023-03-31T05:23:20;9.93;;;2.10;;
29902;SDS011;30288;50.514;9.678;2023-03-31T05:25:25;14.82;;;3.40;;
29902;SDS011;30288;50.514;9.678;2023-03-31T05:27:33;13.57;;;2.28;;
29902;SDS011;30288;50.514;9.678;2023-03-31T05:29:39;14.00;;;2.22;;
29902;SDS011;30288;50.514;9.678;2023-03-31T05:31:47;13.38;;;2.47;;
29902;SDS011;30288;50.514;9.678;2023-03-31T05:33:54;19.33;;;2.78;;
29902;SDS011;30288;50.514;9.678;2023-03-31T05:35:59;14.73;;;3.28;;
29902;SDS011;30288;50.514;9.678;2023-03-31T05:38:04;19.25;;;2.78;;
29902;SDS011;30288;50.514;9.678;2023-03-31T05:40:10;16.42;;;2.83;;
29902;SDS011;30288;50.514;9.678;2023-03-31T05:42:16;20.77;;;2.60;;
29902;SDS011;30288;50.514;9.678;2023-03-31T05:44:21;16.60;;;2.80;;
29902;SDS011;30288;50.514;9.678;2023-03-31T05:46:27;19.83;;;3.40;;
29902;SDS011;30288;50.514;9.678;2023-03-31T05:48:35;17.85;;;3.95;;
29902;SDS011;30288;50.514;9.678;2023-03-31T05:50:40;13.30;;;3.53;;
29902;SDS011;30288;50.514;9.678;2023-03-31T05:52:46;15.93;;;3.25;;
29902;SDS011;30288;50.514;9.678;2023-03-31T05:54:51;10.18;;;2.30;;
29902;SDS011;30288;50.514;9.678;2023-03-31T05:56:56;17.25;;;3.28;;
29902;SDS011;30288;50.514;9.678;2023-03-31T05:59:01;17.55;;;3.33;;
29902;SDS011;30288;50.514;9.678;2023-03-31T06:01:07;11.93;;;2.65;;
29902;SDS011;30288;50.514;9.678;2023-03-31T06:03:20;13.90;;;2.92;;
29902;SDS011;30288;50.514;9.678;2023-03-31T06:05:28;19.70;;;3.92;;
29902;SDS011;30288;50.514;9.678;2023-03-31T06:07:33;17.52;;;3.10;;
29902;SDS011;30288;50.514;9.678;2023-03-31T06:09:38;16.23;;;3.30;;
29902;SDS011;30288;50.514;9.678;2023-03-31T06:11:44;13.27;;;2.55;;
29902;SDS011;30288;50.514;9.678;2023-03-31T06:13:51;11.32;;;2.65;;
29902;SDS011;30288;50.514;9.678;2023-03-31T06:15:57;15.30;;;2.80;;
29902;SDS011;30288;50.514;9.678;2023-03-31T06:18:03;14.38;;;2.75;;
29902;SDS011;30288;50.514;9.678;2023-03-31T06:20:11;9.50;;;2.80;;
29902;SDS011;30288;50.514;9.678;2023-03-31T06:22:31;15.85;;;2.78;;
29902;SDS011;30288;50.514;9.678;2023-03-31T06:24:36;13.55;;;2.88;;
29902;SDS011;30288;50.514;9.678;2023-03-31T06:26:41;10.93;;;2.38;;
29902;SDS011;30288;50.514;9.678;2023-03-31T06:28:46;14.23;;;2.80;;
29902;SDS011;30288;50.514;9.678;2023-03-31T06:30:58;11.02;;;2.78;;
29902;SDS011;30288;50.514;9.678;2023-03-31T06:33:05;14.35;;;2.80;;
29902;SDS011;30288;50.514;9.678;2023-03-31T06:35:10;15.65;;;2.85;;
29902;SDS011;30288;50.514;9.678;2023-03-31T06:37:15;12.55;;;2.83;;
29902;SDS011;30288;50.514;9.678;2023-03-31T06:39:23;10.30;;;2.50;;
29902;SDS011;30288;50.514;9.678;2023-03-31T06:41:29;14.50;;;3.05;;
29902;SDS011;30288;50.514;9.678;2023-03-31T06:43:34;12.45;;;2.83;;
29902;SDS011;30288;50.514;9.678;2023-03-31T06:45:39;12.43;;;2.60;;
29902;SDS011;30288;50.514;9.678;2023-03-31T06:47:44;16.80;;;3.15;;
29902;SDS011;30288;50.514;9.678;2023-03-31T06:49:50;13.68;;;3.22;;
29902;SDS011;30288;50.514;9.678;2023-03-31T06:51:55;13.45;;;2.55;;
29902;SDS011;30288;50.514;9.678;2023-03-31T06:54:00;14.38;;;2.28;;
29902;SDS011;30288;50.514;9.678;2023-03-31T06:56:09;10.82;;;2.38;;
29902;SDS011;30288;50.514;9.678;2023-03-31T06:58:14;10.75;;;2.40;;
29902;SDS011;30288;50.514;9.678;2023-03-31T07:00:20;16.30;;;3.00;;
29902;SDS011;30288;50.514;9.678;2023-03-31T07:02:28;21.13;;;2.60;;
29902;SDS011;30288;50.514;9.678;2023-03-31T07:04:33;7.60;;;2.05;;
29902;SDS011;30288;50.514;9.678;2023-03-31T07:06:38;14.40;;;2.72;;
29902;SDS011;30288;50.514;9.678;2023-03-31T07:08:43;11.20;;;1.95;;
29902;SDS011;30288;50.514;9.678;2023-03-31T07:10:48;10.93;;;2.17;;
29902;SDS011;30288;50.514;9.678;2023-03-31T07:13:01;10.00;;;2.10;;
29902;SDS011;30288;50.514;9.678;2023-03-31T07:15:07;11.48;;;1.60;;
29902;SDS011;30288;50.514;9.678;2023-03-31T07:17:13;9.48;;;2.22;;
29902;SDS011;30288;50.514;9.678;2023-03-31T07:19:18;13.82;;;2.22;;
29902;SDS011;30288;50.514;9.678;2023-03-31T07:21:24;12.98;;;2.10;;
29902;SDS011;30288;50.514;9.678;2023-03-31T07:23:29;10.50;;;1.83;;
29902;SDS011;30288;50.514;9.678;2023-03-31T07:25:35;13.90;;;2.45;;
29902;SDS011;30288;50.514;9.678;2023-03-31T07:27:40;17.92;;;2.47;;
29902;SDS011;30288;50.514;9.678;2023-03-31T07:29:49;12.38;;;2.20;;
29902;SDS011;30288;50.514;9.678;2023-03-31T07:31:54;14.70;;;2.33;;
29902;SDS011;30288;50.514;9.678;2023-03-31T07:33:59;9.63;;;2.05;;
29902;SDS011;30288;50.514;9.678;2023-03-31T07:36:06;12.75;;;2.22;;
29902;SDS011;30288;50.514;9.678;2023-03-31T07:38:14;12.00;;;2.15;;
29902;SDS011;30288;50.514;9.678;2023-03-31T07:40:21;13.52;;;2.28;;
29902;SDS011;30288;50.514;9.678;2023-03-31T07:42:30;8.02;;;2.33;;
29902;SDS011;30288;50.514;9.678;2023-03-31T07:44:36;10.40;;;2.53;;
29902;SDS011;30288;50.514;9.678;2023-03-31T07:46:44;10.55;;;2.63;;
29902;SDS011;30288;50.514;9.678;2023-03-31T07:48:49;10.27;;;2.33;;
29902;SDS011;30288;50.514;9.678;2023-03-31T07:50:55;11.95;;;2.83;;
29902;SDS011;30288;50.514;9.678;2023-03-31T07:53:05;12.20;;;2.70;;
29902;SDS011;30288;50.514;9.678;2023-03-31T07:55:11;14.77;;;2.90;;
29902;SDS011;30288;50.514;9.678;2023-03-31T07:57:17;10.23;;;2.75;;
29902;SDS011;30288;50.514;9.678;2023-03-31T07:59:23;7.45;;;2.20;;
29902;SDS011;30288;50.514;9.678;2023-03-31T08:01:28;8.07;;;2.47;;
29902;SDS011;30288;50.514;9.678;2023-03-31T08:03:36;8.05;;;2.55;;
29902;SDS011;30288;50.514;9.678;2023-03-31T08:05:42;10.48;;;2.25;;
29902;SDS011;30288;50.514;9.678;2023-03-31T08:07:48;7.53;;;2.45;;
29902;SDS011;30288;50.514;9.678;2023-03-31T08:09:54;12.63;;;2.58;;
29902;SDS011;30288;50.514;9.678;2023-03-31T08:11:59;31.48;;;3.35;;
29902;SDS011;30288;50.514;9.678;2023-03-31T08:14:04;13.57;;;3.05;;
29902;SDS011;30288;50.514;9.678;2023-03-31T08:16:09;10.70;;;2.95;;
29902;SDS011;30288;50.514;9.678;2023-03-31T08:18:14;14.60;;;2.80;;
29902;SDS011;30288;50.514;9.678;2023-03-31T08:20:23;10.65;;;2.75;;
29902;SDS011;30288;50.514;9.678;2023-03-31T08:22:28;13.07;;;3.00;;
29902;SDS011;30288;50.514;9.678;2023-03-31T08:24:33;12.43;;;2.90;;
29902;SDS011;30288;50.514;9.678;2023-03-31T08:26:39;8.85;;;3.10;;
29902;SDS011;30288;50.514;9.678;2023-03-31T08:28:45;10.20;;;3.05;;
29902;SDS011;30288;50.514;9.678;2023-03-31T08:30:51;12.75;;;2.97;;
29902;SDS011;30288;50.514;9.678;2023-03-31T08:32:56;9.30;;;2.47;;
29902;SDS011;30288;50.514;9.678;2023-03-31T08:35:02;10.43;;;2.80;;
29902;SDS011;30288;50.514;9.678;2023-03-31T08:37:12;11.73;;;3.58;;
29902;SDS011;30288;50.514;9.678;2023-03-31T08:39:17;16.20;;;3.95;;
29902;SDS011;30288;50.514;9.678;2023-03-31T08:41:26;12.40;;;3.10;;
29902;SDS011;30288;50.514;9.678;2023-03-31T08:43:45;8.68;;;3.40;;
29902;SDS011;30288;50.514;9.678;2023-03-31T08:45:52;19.42;;;3.72;;
29902;SDS011;30288;50.514;9.678;2023-03-31T08:47:59;11.98;;;3.95;;
29902;SDS011;30288;50.514;9.678;2023-03-31T08:50:12;18.10;;;5.95;;
29902;SDS011;30288;50.514;9.678;2023-03-31T08:52:25;12.02;;;3.80;;
29902;SDS011;30288;50.514;9.678;2023-03-31T08:54:37;13.10;;;3.72;;
29902;SDS011;30288;50.514;9.678;2023-03-31T08:56:47;10.32;;;3.47;;
29902;SDS011;30288;50.514;9.678;2023-03-31T08:58:54;10.82;;;3.13;;
29902;SDS011;30288;50.514;9.678;2023-03-31T09:01:05;9.93;;;3.50;;
29902;SDS011;30288;50.514;9.678;2023-03-31T09:03:22;12.73;;;3.80;;
29902;SDS011;30288;50.514;9.678;2023-03-31T09:05:36;8.70;;;3.13;;
29902;SDS011;30288;50.514;9.678;2023-03-31T09:08:05;11.10;;;3.75;;
29902;SDS011;30288;50.514;9.678;2023-03-31T09:10:31;9.60;;;2.70;;
29902;SDS011;30288;50.514;9.678;2023-03-31T09:12:45;12.13;;;3.47;;
29902;SDS011;30288;50.514;9.678;2023-03-31T09:14:56;13.20;;;3.40;;
29902;SDS011;30288;50.514;9.678;2023-03-31T09:17:07;5.43;;;2.30;;
29902;SDS011;30288;50.514;9.678;2023-03-31T09:19:28;9.55;;;2.95;;
29902;SDS011;30288;50.514;9.678;2023-03-31T09:21:40;5.20;;;2.20;;
29902;SDS011;30288;50.514;9.678;2023-03-31T09:23:54;11.73;;;2.55;;
29902;SDS011;30288;50.514;9.678;2023-03-31T09:26:05;6.45;;;2.50;;
29902;SDS011;30288;50.514;9.678;2023-03-31T09:28:25;5.95;;;2.90;;
29902;SDS011;30288;50.514;9.678;2023-03-31T09:30:38;8.35;;;3.50;;
29902;SDS011;30288;50.514;9.678;2023-03-31T09:32:45;9.80;;;2.85;;
29902;SDS011;30288;50.514;9.678;2023-03-31T09:34:56;9.27;;;2.88;;
29902;SDS011;30288;50.514;9.678;2023-03-31T09:37:04;11.82;;;3.80;;
29902;SDS011;30288;50.514;9.678;2023-03-31T09:39:13;13.90;;;4.55;;
29902;SDS011;30288;50.514;9.678;2023-03-31T09:41:19;9.80;;;3.72;;
29902;SDS011;30288;50.514;9.678;2023-03-31T09:43:25;8.05;;;3.25;;
29902;SDS011;30288;50.514;9.678;2023-03-31T09:45:32;7.65;;;2.72;;
29902;SDS011;30288;50.514;9.678;2023-03-31T09:47:39;8.07;;;3.28;;
29902;SDS011;30288;50.514;9.678;2023-03-31T09:49:47;13.82;;;3.00;;
29902;SDS011;30288;50.514;9.678;2023-03-31T09:52:02;8.05;;;3.35;;
29902;SDS011;30288;50.514;9.678;2023-03-31T09:54:20;12.68;;;3.85;;
29902;SDS011;30288;50.514;9.678;2023-03-31T09:56:31;10.15;;;3.03;;
29902;SDS011;30288;50.514;9.678;2023-03-31T09:58:47;8.27;;;3.22;;
29902;SDS011;30288;50.514;9.678;2023-03-31T10:00:57;13.38;;;3.75;;
29902;SDS011;30288;50.514;9.678;2023-03-31T10:03:05;9.38;;;3.15;;
29902;SDS011;30288;50.514;9.678;2023-03-31T10:05:18;11.85;;;3.30;;
29902;SDS011;30288;50.514;9.678;2023-03-31T10:07:32;9.45;;;3.10;;
29902;SDS011;30288;50.514;9.678;2023-03-31T10:09:41;9.23;;;2.88;;
29902;SDS011;30288;50.514;9.678;2023-03-31T10:11:54;8.63;;;2.83;;
29902;SDS011;30288;50.514;9.678;2023-03-31T10:14:01;9.95;;;2.60;;
29902;SDS011;30288;50.514;9.678;2023-03-31T10:16:11;7.22;;;2.92;;
29902;SDS011;30288;50.514;9.678;2023-03-31T10:18:30;6.88;;;2.88;;
29902;SDS011;30288;50.514;9.678;2023-03-31T10:20:41;11.13;;;3.38;;
29902;SDS011;30288;50.514;9.678;2023-03-31T10:22:52;6.85;;;2.53;;
29902;SDS011;30288;50.514;9.678;2023-03-31T10:25:06;10.60;;;2.80;;
29902;SDS011;30288;50.514;9.678;2023-03-31T10:27:19;8.25;;;2.40;;
29902;SDS011;30288;50.514;9.678;2023-03-31T10:29:28;10.63;;;2.42;;
29902;SDS011;30288;50.514;9.678;2023-03-31T10:31:36;9.35;;;2.53;;
29902;SDS011;30288;50.514;9.678;2023-03-31T10:33:43;8.52;;;2.50;;
29902;SDS011;30288;50.514;9.678;2023-03-31T10:35:54;10.27;;;2.72;;
29902;SDS011;30288;50.514;9.678;2023-03-31T10:38:02;9.32;;;2.35;;
29902;SDS011;30288;50.514;9.678;2023-03-31T10:40:16;7.88;;;2.40;;
29902;SDS011;30288;50.514;9.678;2023-03-31T10:42:25;7.60;;;2.30;;
29902;SDS011;30288;50.514;9.678;2023-03-31T10:44:33;8.93;;;2.90;;
29902;SDS011;30288;50.514;9.678;2023-03-31T10:46:41;9.20;;;2.15;;
29902;SDS011;30288;50.514;9.678;2023-03-31T10:48:50;8.48;;;2.05;;
29902;SDS011;30288;50.514;9.678;2023-03-31T10:50:57;12.25;;;3.20;;
29902;SDS011;30288;50.514;9.678;2023-03-31T10:53:05;11.20;;;2.70;;
29902;SDS011;30288;50.514;9.678;2023-03-31T10:55:21;10.20;;;2.58;;
29902;SDS011;30288;50.514;9.678;2023-03-31T10:57:36;10.38;;;2.63;;
29902;SDS011;30288;50.514;9.678;2023-03-31T10:59:54;11.60;;;2.47;;
29902;SDS011;30288;50.514;9.678;2023-03-31T11:02:21;10.38;;;2.25;;
29902;SDS011;30288;50.514;9.678;2023-03-31T11:05:05;13.00;;;2.70;;
29902;SDS011;30288;50.514;9.678;2023-03-31T11:07:24;9.90;;;2.88;;
29902;SDS011;30288;50.514;9.678;2023-03-31T11:09:43;10.95;;;2.63;;
29902;SDS011;30288;50.514;9.678;2023-03-31T11:12:07;8.23;;;2.47;;
29902;SDS011;30288;50.514;9.678;2023-03-31T11:14:24;10.00;;;2.25;;
29902;SDS011;30288;50.514;9.678;2023-03-31T11:16:43;11.93;;;2.40;;
29902;SDS011;30288;50.514;9.678;2023-03-31T11:18:56;9.63;;;2.70;;
29902;SDS011;30288;50.514;9.678;2023-03-31T11:21:17;8.13;;;1.92;;
29902;SDS011;30288;50.514;9.678;2023-03-31T11:23:30;8.68;;;2.15;;
29902;SDS011;30288;50.514;9.678;2023-03-31T11:25:45;9.18;;;2.40;;
29902;SDS011;30288;50.514;9.678;2023-03-31T11:28:14;11.55;;;2.60;;
29902;SDS011;30288;50.514;9.678;2023-03-31T11:30:30;13.70;;;2.88;;
29902;SDS011;30288;50.514;9.678;2023-03-31T11:32:45;15.93;;;3.25;;
29902;SDS011;30288;50.514;9.678;2023-03-31T11:37:49;9.00;;;1.85;;
29902;SDS011;30288;50.514;9.678;2023-03-31T11:40:18;8.32;;;1.55;;
29902;SDS011;30288;50.514;9.678;2023-03-31T11:42:38;6.03;;;1.38;;
29902;SDS011;30288;50.514;9.678;2023-03-31T11:44:55;7.65;;;2.78;;
29902;SDS011;30288;50.514;9.678;2023-03-31T11:47:06;8.02;;;1.58;;
29902;SDS011;30288;50.514;9.678;2023-03-31T11:49:17;6.45;;;1.30;;
29902;SDS011;30288;50.514;9.678;2023-03-31T11:51:28;7.35;;;1.08;;
29902;SDS011;30288;50.514;9.678;2023-03-31T11:53:39;8.60;;;1.30;;
29902;SDS011;30288;50.514;9.678;2023-03-31T11:55:49;3.42;;;1.00;;
29902;SDS011;30288;50.514;9.678;2023-03-31T11:58:00;6.47;;;1.05;;
29902;SDS011;30288;50.514;9.678;2023-03-31T12:00:14;8.07;;;1.40;;
29902;SDS011;30288;50.514;9.678;2023-03-31T12:02:26;3.40;;;0.88;;
29902;SDS011;30288;50.514;9.678;2023-03-31T12:04:43;3.40;;;0.82;;
29902;SDS011;30288;50.514;9.678;2023-03-31T12:06:51;5.82;;;1.15;;
29902;SDS011;30288;50.514;9.678;2023-03-31T12:09:05;6.43;;;0.93;;
29902;SDS011;30288;50.514;9.678;2023-03-31T12:11:20;5.25;;;1.08;;
29902;SDS011;30288;50.514;9.678;2023-03-31T12:13:38;9.95;;;1.20;;
29902;SDS011;30288;50.514;9.678;2023-03-31T12:15:57;3.65;;;1.00;;
29902;SDS011;30288;50.514;9.678;2023-03-31T12:18:08;10.02;;;1.30;;
29902;SDS011;30288;50.514;9.678;2023-03-31T12:20:20;4.38;;;1.15;;
29902;SDS011;30288;50.514;9.678;2023-03-31T12:22:34;6.22;;;1.20;;
29902;SDS011;30288;50.514;9.678;2023-03-31T12:24:43;6.28;;;1.25;;
29902;SDS011;30288;50.514;9.678;2023-03-31T12:26:52;6.55;;;1.75;;
29902;SDS011;30288;50.514;9.678;2023-03-31T12:29:10;8.20;;;1.88;;
29902;SDS011;30288;50.514;9.678;2023-03-31T12:31:28;3.92;;;1.20;;
29902;SDS011;30288;50.514;9.678;2023-03-31T12:33:36;4.47;;;1.20;;
29902;SDS011;30288;50.514;9.678;2023-03-31T12:35:50;3.80;;;1.20;;
29902;SDS011;30288;50.514;9.678;2023-03-31T12:38:12;5.73;;;1.00;;
29902;SDS011;30288;50.514;9.678;2023-03-31T12:40:32;5.57;;;1.30;;
29902;SDS011;30288;50.514;9.678;2023-03-31T12:42:48;3.60;;;1.10;;
29902;SDS011;30288;50.514;9.678;2023-03-31T12:45:09;6.82;;;1.35;;
29902;SDS011;30288;50.514;9.678;2023-03-31T12:47:37;7.75;;;1.40;;
29902;SDS011;30288;50.514;9.678;2023-03-31T12:50:08;8.88;;;1.90;;
29902;SDS011;30288;50.514;9.678;2023-03-31T12:52:41;8.52;;;1.90;;
29902;SDS011;30288;50.514;9.678;2023-03-31T12:57:34;11.45;;;2.28;;
29902;SDS011;30288;50.514;9.678;2023-03-31T12:59:39;9.93;;;1.80;;
29902;SDS011;30288;50.514;9.678;2023-03-31T13:04:27;8.13;;;1.52;;
29902;SDS011;30288;50.514;9.678;2023-03-31T13:09:05;5.40;;;1.35;;
29902;SDS011;30288;50.514;9.678;2023-03-31T13:11:34;4.80;;;1.40;;
29902;SDS011;30288;50.514;9.678;2023-03-31T13:13:44;5.72;;;1.42;;
29902;SDS011;30288;50.514;9.678;2023-03-31T13:16:18;9.02;;;1.60;;
29902;SDS011;30288;50.514;9.678;2023-03-31T13:18:24;8.95;;;2.38;;
29902;SDS011;30288;50.514;9.678;2023-03-31T13:20:40;12.40;;;1.73;;
29902;SDS011;30288;50.514;9.678;2023-03-31T13:22:46;9.45;;;1.80;;